createdAt,value
2022-10-01T00:00:07.939Z,5.82
2022-10-01T00:02:38.181Z,5.80
2022-10-01T00:05:07.181Z,5.25
2022-10-01T00:07:38.635Z,5.93
2022-10-01T00:10:07.463Z,6.38
2022-10-01T00:12:35.184Z,5.70
2022-10-01T00:15:06.011Z,6.45
2022-10-01T00:17:35.883Z,6.18
2022-10-01T00:20:10.718Z,5.80
2022-10-01T00:22:41.797Z,6.28
2022-10-01T00:25:09.482Z,6.20
2022-10-01T00:27:36.907Z,6.35
2022-10-01T00:30:05.111Z,6.35
2022-10-01T00:32:32.641Z,6.22
2022-10-01T00:35:02.047Z,6.55
2022-10-01T00:37:29.482Z,6.97
2022-10-01T00:39:56.842Z,6.80
2022-10-01T00:42:26.580Z,7.03
2022-10-01T00:47:27.068Z,6.75
2022-10-01T00:50:00.843Z,6.82
2022-10-01T00:52:32.524Z,7.35
2022-10-01T00:55:05.002Z,6.47
2022-10-01T00:57:33.618Z,6.68
2022-10-01T01:00:04.888Z,7.05
2022-10-01T01:02:32.644Z,6.95
2022-10-01T01:05:00.432Z,6.82
2022-10-01T01:07:31.676Z,6.60
2022-10-01T01:10:00.754Z,7.40
2022-10-01T01:12:40.661Z,7.95
2022-10-01T01:15:15.357Z,7.60
2022-10-01T01:17:52.622Z,7.28
2022-10-01T01:20:37.618Z,7.05
2022-10-01T01:23:25.983Z,6.85
2022-10-01T01:26:02.533Z,7.68
2022-10-01T01:28:34.933Z,7.03
2022-10-01T01:31:08.567Z,7.35
2022-10-01T01:33:39.421Z,8.48
2022-10-01T01:36:11.035Z,8.43
2022-10-01T01:38:44.992Z,8.25
2022-10-01T01:41:14.871Z,8.20
2022-10-01T01:43:48.185Z,8.30
2022-10-01T01:46:17.212Z,8.20
2022-10-01T01:48:46.381Z,7.85
2022-10-01T01:51:19.683Z,8.10
2022-10-01T01:53:49.934Z,8.13
2022-10-01T01:56:17.550Z,8.35
2022-10-01T01:58:47.583Z,8.35
2022-10-01T02:01:38.532Z,7.50
2022-10-01T02:04:09.260Z,8.30
2022-10-01T02:06:52.999Z,8.00
2022-10-01T02:09:27.754Z,7.85
2022-10-01T02:12:04.743Z,8.15
2022-10-01T02:14:40.341Z,7.72
2022-10-01T02:17:14.523Z,7.78
2022-10-01T02:19:50.608Z,7.28
2022-10-01T02:22:23.427Z,8.25
2022-10-01T02:24:56.572Z,7.93
2022-10-01T02:27:29.468Z,7.50
2022-10-01T02:30:02.229Z,8.45
2022-10-01T02:32:31.649Z,7.63
2022-10-01T02:35:01.075Z,8.23
2022-10-01T02:37:29.108Z,7.90
2022-10-01T02:39:58.047Z,7.43
2022-10-01T02:42:28.866Z,7.43
2022-10-01T02:45:00.682Z,7.43
2022-10-01T02:47:32.542Z,7.65
2022-10-01T02:50:01.054Z,7.90
2022-10-01T02:52:35.714Z,7.80
2022-10-01T02:55:09.369Z,8.35
2022-10-01T02:57:37.673Z,7.47
2022-10-01T03:00:09.554Z,8.13
2022-10-01T03:02:37.084Z,8.13
2022-10-01T03:05:05.614Z,8.63
2022-10-01T03:07:34.458Z,7.10
2022-10-01T03:10:02.215Z,7.70
2022-10-01T03:12:29.787Z,7.55
2022-10-01T03:14:57.841Z,7.95
2022-10-01T03:17:27.121Z,8.18
2022-10-01T03:19:54.482Z,8.15
2022-10-01T03:22:23.196Z,7.88
2022-10-01T03:24:50.871Z,8.70
2022-10-01T03:27:18.715Z,7.68
2022-10-01T03:29:46.555Z,8.57
2022-10-01T03:32:15.236Z,9.57
2022-10-01T03:34:44.369Z,9.85
2022-10-01T03:37:11.846Z,9.77
2022-10-01T03:39:39.317Z,9.80
2022-10-01T03:42:06.711Z,10.13
2022-10-01T03:44:34.643Z,9.90
2022-10-01T03:47:02.117Z,9.88
2022-10-01T03:49:29.823Z,9.77
2022-10-01T03:51:58.652Z,10.07
2022-10-01T03:54:26.118Z,10.70
2022-10-01T03:56:53.494Z,12.02
2022-10-01T03:59:20.893Z,11.20
2022-10-01T04:01:48.416Z,11.45
2022-10-01T04:04:16.244Z,12.18
2022-10-01T04:06:43.593Z,11.82
2022-10-01T04:09:12.398Z,11.70
2022-10-01T04:11:39.839Z,12.60
2022-10-01T04:14:07.280Z,11.63
2022-10-01T04:16:34.838Z,12.32
2022-10-01T04:19:02.595Z,12.07
2022-10-01T04:21:30.155Z,11.30
2022-10-01T04:23:57.522Z,11.18
2022-10-01T04:26:26.306Z,11.75
2022-10-01T04:28:54.151Z,11.43
2022-10-01T04:31:21.643Z,11.23
2022-10-01T04:33:49.055Z,12.05
2022-10-01T04:36:16.544Z,11.43
2022-10-01T04:38:43.921Z,11.82
2022-10-01T04:41:11.265Z,10.85
2022-10-01T04:43:40.027Z,11.30
2022-10-01T04:46:07.454Z,11.60
2022-10-01T04:48:34.852Z,11.15
2022-10-01T04:51:02.199Z,12.15
2022-10-01T04:53:29.534Z,12.55
2022-10-01T04:55:57.382Z,11.52
2022-10-01T04:58:25.139Z,11.57
2022-10-01T05:00:56.423Z,12.82
2022-10-01T05:03:25.840Z,12.05
2022-10-01T05:05:53.239Z,11.35
2022-10-01T05:08:20.586Z,11.65
2022-10-01T05:10:47.955Z,11.80
2022-10-01T05:13:15.291Z,11.35
2022-10-01T05:15:42.939Z,12.25
2022-10-01T05:18:11.752Z,12.20
2022-10-01T05:20:39.126Z,11.40
2022-10-01T05:23:06.486Z,12.27
2022-10-01T05:25:33.879Z,11.70
2022-10-01T05:28:02.621Z,10.85
2022-10-01T05:30:30.052Z,11.97
2022-10-01T05:32:59.708Z,11.75
2022-10-01T05:35:29.395Z,11.43
2022-10-01T05:40:24.800Z,11.43
2022-10-01T05:42:52.151Z,11.80
2022-10-01T05:45:19.783Z,11.57
2022-10-01T05:47:47.298Z,12.63
2022-10-01T05:50:14.857Z,12.32
2022-10-01T05:52:49.833Z,13.23
2022-10-01T05:55:17.215Z,14.68
2022-10-01T05:57:44.561Z,14.95
2022-10-01T06:00:12.694Z,14.77
2022-10-01T06:02:40.022Z,16.02
2022-10-01T06:05:07.831Z,15.73
2022-10-01T06:07:35.181Z,16.50
2022-10-01T06:10:04.477Z,16.65
2022-10-01T06:12:31.797Z,15.60
2022-10-01T06:14:59.143Z,17.05
2022-10-01T06:17:26.502Z,17.25
2022-10-01T06:19:53.839Z,16.85
2022-10-01T06:22:21.235Z,17.58
2022-10-01T06:24:48.564Z,17.70
2022-10-01T06:27:17.456Z,17.17
2022-10-01T06:29:47.547Z,16.40
2022-10-01T06:32:15.102Z,16.42
2022-10-01T06:34:42.434Z,17.15
2022-10-01T06:37:09.815Z,16.48
2022-10-01T06:39:37.254Z,17.23
2022-10-01T06:42:04.725Z,18.10
2022-10-01T06:44:33.542Z,18.25
2022-10-01T06:47:00.927Z,18.00
2022-10-01T06:49:28.316Z,18.30
2022-10-01T06:51:55.751Z,18.48
2022-10-01T06:54:23.693Z,17.23
2022-10-01T06:56:51.004Z,16.73
2022-10-01T06:59:18.409Z,17.23
2022-10-01T07:01:52.931Z,18.08
2022-10-01T07:04:22.878Z,18.33
2022-10-01T07:06:50.238Z,19.02
2022-10-01T07:09:17.620Z,17.27
2022-10-01T07:11:44.954Z,18.02
2022-10-01T07:14:12.369Z,17.85
2022-10-01T07:16:39.795Z,17.52
2022-10-01T07:19:08.696Z,18.33
2022-10-01T07:21:36.540Z,17.43
2022-10-01T07:24:04.324Z,17.92
2022-10-01T07:26:32.954Z,17.27
2022-10-01T07:29:00.302Z,17.25
2022-10-01T07:31:27.754Z,18.42
2022-10-01T07:33:57.434Z,19.40
2022-10-01T07:36:26.337Z,17.60
2022-10-01T07:38:53.660Z,16.33
2022-10-01T07:41:21.047Z,17.85
2022-10-01T07:43:48.399Z,20.10
2022-10-01T07:46:15.804Z,19.55
2022-10-01T07:48:43.279Z,19.80
2022-10-01T07:51:10.621Z,19.35
2022-10-01T07:53:39.405Z,19.77
2022-10-01T07:56:06.776Z,18.52
2022-10-01T07:58:34.135Z,19.42
2022-10-01T08:01:04.301Z,19.75
2022-10-01T08:03:31.721Z,18.45
2022-10-01T08:05:59.347Z,18.65
2022-10-01T08:08:26.710Z,18.70
2022-10-01T08:10:55.501Z,18.67
2022-10-01T08:13:22.920Z,18.50
2022-10-01T08:15:50.989Z,17.75
2022-10-01T08:18:18.330Z,18.02
2022-10-01T08:20:46.122Z,17.42
2022-10-01T08:23:15.487Z,16.92
2022-10-01T08:25:43.927Z,17.48
2022-10-01T08:28:13.034Z,16.25
2022-10-01T08:30:41.948Z,15.55
2022-10-01T08:33:11.594Z,15.10
2022-10-01T08:35:40.200Z,16.35
2022-10-01T08:38:08.229Z,15.38
2022-10-01T08:40:41.141Z,15.25
2022-10-01T08:43:21.776Z,15.40
2022-10-01T08:45:52.670Z,14.80
2022-10-01T08:48:29.697Z,14.60
2022-10-01T08:51:00.531Z,14.48
2022-10-01T08:53:33.723Z,14.57
2022-10-01T08:56:03.834Z,14.40
2022-10-01T08:58:41.548Z,14.40
2022-10-01T09:01:10.766Z,13.43
2022-10-01T09:03:39.547Z,13.88
2022-10-01T09:06:18.204Z,12.83
2022-10-01T09:09:06.399Z,12.90
2022-10-01T09:11:47.431Z,12.13
2022-10-01T09:14:31.358Z,12.88
2022-10-01T09:17:08.842Z,13.50
2022-10-01T09:19:52.879Z,12.73
2022-10-01T09:22:31.042Z,12.50
2022-10-01T09:25:05.422Z,11.82
2022-10-01T09:27:34.527Z,11.60
2022-10-01T09:30:05.355Z,11.90
2022-10-01T09:32:39.282Z,12.10
2022-10-01T09:35:20.538Z,12.43
2022-10-01T09:37:56.323Z,13.23
2022-10-01T09:40:33.083Z,13.82
2022-10-01T09:43:00.656Z,13.52
2022-10-01T09:45:29.746Z,14.80
2022-10-01T09:48:04.242Z,15.68
2022-10-01T09:50:39.794Z,15.02
2022-10-01T09:53:16.195Z,15.02
2022-10-01T09:55:47.832Z,15.15
2022-10-01T09:58:19.759Z,15.25
2022-10-01T10:00:48.596Z,13.18
2022-10-01T10:03:23.802Z,14.37
2022-10-01T10:05:51.646Z,15.35
2022-10-01T10:08:26.515Z,15.35
2022-10-01T10:10:58.667Z,16.00
2022-10-01T10:13:30.699Z,15.63
2022-10-01T10:16:01.183Z,16.05
2022-10-01T10:18:30.842Z,14.70
2022-10-01T10:21:01.906Z,15.23
2022-10-01T10:23:29.353Z,15.32
2022-10-01T10:25:58.527Z,14.65
2022-10-01T10:28:26.420Z,14.38
2022-10-01T10:30:55.967Z,15.00
2022-10-01T10:33:25.703Z,15.80
2022-10-01T10:38:32.526Z,14.63
2022-10-01T10:41:00.794Z,13.52
2022-10-01T10:43:31.950Z,13.15
2022-10-01T10:45:59.733Z,14.02
2022-10-01T10:48:32.989Z,11.93
2022-10-01T10:51:01.891Z,13.20
2022-10-01T10:53:39.264Z,11.97
2022-10-01T10:56:14.810Z,11.55
2022-10-01T10:58:42.166Z,13.57
2022-10-01T11:01:13.800Z,15.10
2022-10-01T11:03:48.152Z,12.00
2022-10-01T11:06:16.909Z,11.15
2022-10-01T11:08:45.835Z,10.95
2022-10-01T11:11:26.666Z,10.57
2022-10-01T11:14:12.729Z,10.30
2022-10-01T11:16:51.287Z,10.98
2022-10-01T11:19:34.148Z,12.18
2022-10-01T11:22:19.855Z,11.30
2022-10-01T11:25:00.798Z,13.13
2022-10-01T11:27:39.909Z,13.23
2022-10-01T11:30:11.162Z,13.75
2022-10-01T11:32:42.894Z,13.60
2022-10-01T11:35:31.146Z,14.68
2022-10-01T11:38:20.274Z,13.25
2022-10-01T11:40:53.447Z,11.95
2022-10-01T11:43:24.820Z,11.90
2022-10-01T11:45:56.670Z,13.32
2022-10-01T11:48:28.591Z,13.85
2022-10-01T11:51:03.220Z,14.20
2022-10-01T11:53:35.215Z,12.90
2022-10-01T11:56:08.612Z,13.55
2022-10-01T11:58:43.431Z,14.13
2022-10-01T12:01:13.735Z,13.63
2022-10-01T12:04:02.291Z,13.13
2022-10-01T12:06:35.659Z,12.98
2022-10-01T12:09:08.471Z,13.55
2022-10-01T12:11:42.666Z,13.32
2022-10-01T12:14:15.680Z,14.30
2022-10-01T12:16:50.196Z,13.40
2022-10-01T12:19:23.265Z,12.85
2022-10-01T12:21:56.598Z,12.63
2022-10-01T12:24:29.173Z,12.70
2022-10-01T12:27:10.266Z,12.90
2022-10-01T12:29:46.232Z,13.15
2022-10-01T12:32:21.627Z,13.90
2022-10-01T12:35:01.867Z,14.63
2022-10-01T12:37:42.470Z,13.88
2022-10-01T12:40:26.375Z,13.48
2022-10-01T12:43:10.720Z,12.55
2022-10-01T12:45:51.035Z,12.57
2022-10-01T12:48:25.094Z,12.40
2022-10-01T12:51:14.591Z,10.48
2022-10-01T12:53:51.002Z,11.57
2022-10-01T12:56:26.175Z,12.98
2022-10-01T12:59:20.715Z,13.35
2022-10-01T13:01:58.848Z,13.75
2022-10-01T13:04:49.706Z,14.27
2022-10-01T13:07:30.863Z,13.63
2022-10-01T13:10:11.098Z,13.52
2022-10-01T13:12:59.061Z,14.40
2022-10-01T13:15:29.913Z,13.95
2022-10-01T13:18:06.341Z,13.13
2022-10-01T13:20:40.855Z,12.32
2022-10-01T13:23:16.344Z,13.02
2022-10-01T13:25:54.915Z,13.85
2022-10-01T13:28:26.846Z,13.82
2022-10-01T13:30:58.569Z,13.00
2022-10-01T13:33:27.540Z,12.52
2022-10-01T13:35:57.999Z,13.77
2022-10-01T13:38:30.976Z,13.90
2022-10-01T13:41:02.073Z,13.55
2022-10-01T13:43:31.736Z,13.90
2022-10-01T13:48:35.714Z,14.00
2022-10-01T13:51:07.303Z,13.50
2022-10-01T13:53:38.198Z,14.02
2022-10-01T13:56:08.451Z,13.70
2022-10-01T13:58:39.054Z,13.90
2022-10-01T14:01:26.096Z,13.13
2022-10-01T14:04:02.008Z,14.02
2022-10-01T14:06:37.679Z,13.77
2022-10-01T14:09:11.014Z,13.70
2022-10-01T14:11:44.711Z,13.13
2022-10-01T14:14:19.438Z,14.90
2022-10-01T14:16:47.851Z,13.10
2022-10-01T14:19:19.200Z,14.75
2022-10-01T14:22:14.044Z,14.85
2022-10-01T14:24:57.973Z,14.45
2022-10-01T14:27:33.625Z,14.40
2022-10-01T14:30:06.351Z,16.02
2022-10-01T14:32:46.085Z,14.57
2022-10-01T14:35:25.839Z,14.85
2022-10-01T14:40:24.892Z,15.48
2022-10-01T14:43:02.146Z,15.23
2022-10-01T14:45:30.243Z,15.52
2022-10-01T14:48:01.500Z,14.98
2022-10-01T14:50:32.633Z,15.63
2022-10-01T14:53:00.047Z,15.05
2022-10-01T14:55:29.365Z,15.27
2022-10-01T14:57:57.956Z,15.15
2022-10-01T15:00:29.719Z,15.20
2022-10-01T15:03:09.109Z,15.85
2022-10-01T15:05:37.159Z,15.80
2022-10-01T15:08:12.281Z,14.88
2022-10-01T15:10:41.889Z,17.20
2022-10-01T15:13:10.853Z,17.40
2022-10-01T15:15:42.635Z,16.95
2022-10-01T15:18:14.538Z,16.77
2022-10-01T15:20:52.114Z,17.60
2022-10-01T15:23:21.065Z,17.58
2022-10-01T15:25:49.163Z,19.77
2022-10-01T15:28:25.415Z,18.55
2022-10-01T15:30:56.196Z,18.50
2022-10-01T15:33:27.405Z,20.00
2022-10-01T15:35:57.549Z,18.35
2022-10-01T15:38:26.243Z,19.15
2022-10-01T15:41:05.000Z,21.23
2022-10-01T15:43:42.800Z,21.50
2022-10-01T15:46:17.723Z,21.30
2022-10-01T15:48:46.331Z,21.55
2022-10-01T15:51:22.255Z,20.88
2022-10-01T15:53:50.406Z,21.60
2022-10-01T15:56:21.052Z,21.65
2022-10-01T15:58:52.431Z,22.75
2022-10-01T16:01:25.332Z,22.08
2022-10-01T16:03:56.039Z,22.38
2022-10-01T16:06:27.104Z,22.77
2022-10-01T16:09:02.294Z,21.77
2022-10-01T16:11:30.747Z,21.15
2022-10-01T16:14:21.675Z,22.08
2022-10-01T16:17:11.382Z,22.00
2022-10-01T16:19:38.979Z,22.00
2022-10-01T16:22:14.818Z,22.30
2022-10-01T16:24:44.011Z,22.85
2022-10-01T16:27:15.430Z,22.48
2022-10-01T16:29:43.157Z,22.30
2022-10-01T16:32:14.558Z,21.85
2022-10-01T16:34:41.969Z,23.42
2022-10-01T16:37:09.490Z,21.23
2022-10-01T16:39:37.513Z,21.05
2022-10-01T16:42:22.708Z,21.45
2022-10-01T16:44:51.739Z,21.50
2022-10-01T16:47:20.661Z,20.77
2022-10-01T16:49:50.413Z,20.95
2022-10-01T16:52:18.005Z,20.88
2022-10-01T16:54:45.404Z,21.48
2022-10-01T16:57:12.945Z,21.30
2022-10-01T16:59:40.444Z,22.45
2022-10-01T17:02:11.874Z,21.23
2022-10-01T17:04:41.452Z,21.83
2022-10-01T17:07:09.036Z,20.55
2022-10-01T17:09:36.429Z,20.63
2022-10-01T17:12:04.021Z,20.77
2022-10-01T17:14:31.456Z,19.98
2022-10-01T17:16:58.888Z,20.08
2022-10-01T17:19:26.915Z,22.23
2022-10-01T17:21:55.741Z,22.52
2022-10-01T17:24:23.173Z,21.10
2022-10-01T17:26:50.710Z,22.02
2022-10-01T17:29:18.075Z,21.67
2022-10-01T17:31:45.536Z,21.40
2022-10-01T17:34:13.010Z,20.33
2022-10-01T17:36:40.547Z,20.67
2022-10-01T17:39:09.418Z,20.88
2022-10-01T17:41:37.046Z,21.08
2022-10-01T17:44:04.491Z,20.35
2022-10-01T17:46:32.095Z,21.35
2022-10-01T17:48:59.701Z,20.75
2022-10-01T17:51:27.269Z,21.23
2022-10-01T17:53:55.065Z,19.95
2022-10-01T17:56:24.005Z,19.70
2022-10-01T17:58:53.507Z,19.58
2022-10-01T18:01:21.595Z,20.17
2022-10-01T18:03:52.862Z,20.35
2022-10-01T18:06:20.430Z,21.45
2022-10-01T18:08:56.523Z,21.17
2022-10-01T18:11:26.491Z,21.48
2022-10-01T18:13:53.937Z,19.45
2022-10-01T18:16:22.135Z,19.58
2022-10-01T18:21:43.708Z,19.38
2022-10-01T18:24:11.269Z,19.67
2022-10-01T18:26:40.202Z,20.45
2022-10-01T18:29:07.624Z,20.40
2022-10-01T18:31:36.534Z,21.42
2022-10-01T18:34:11.877Z,19.85
2022-10-01T18:36:45.575Z,20.83
2022-10-01T18:39:19.336Z,21.17
2022-10-01T18:41:50.536Z,21.13
2022-10-01T18:44:20.479Z,20.13
2022-10-01T18:47:09.183Z,20.58
2022-10-01T18:49:55.690Z,19.85
2022-10-01T18:52:35.045Z,20.80
2022-10-01T18:55:24.241Z,20.38
2022-10-01T18:58:18.421Z,20.30
2022-10-01T19:00:56.876Z,18.13
2022-10-01T19:03:56.414Z,19.30
2022-10-01T19:06:40.891Z,18.90
2022-10-01T19:09:19.931Z,18.83
2022-10-01T19:11:57.667Z,18.02
2022-10-01T19:14:48.805Z,18.83
2022-10-01T19:17:27.145Z,17.80
2022-10-01T19:20:05.330Z,17.25
2022-10-01T19:22:57.888Z,17.40
2022-10-01T19:25:33.316Z,17.38
2022-10-01T19:28:10.392Z,17.60
2022-10-01T19:30:49.584Z,17.38
2022-10-01T19:33:21.609Z,18.80
2022-10-01T19:35:53.507Z,18.60
2022-10-01T19:38:26.708Z,18.40
2022-10-01T19:40:59.492Z,17.75
2022-10-01T19:43:32.574Z,17.35
2022-10-01T19:46:06.723Z,17.73
2022-10-01T19:48:44.855Z,17.67
2022-10-01T19:51:15.352Z,17.05
2022-10-01T19:53:45.954Z,16.42
2022-10-01T19:56:17.549Z,16.95
2022-10-01T19:58:46.180Z,17.05
2022-10-01T20:01:20.219Z,16.60
2022-10-01T20:03:53.755Z,16.42
2022-10-01T20:06:28.717Z,16.88
2022-10-01T20:09:00.264Z,16.90
2022-10-01T20:11:31.168Z,16.60
2022-10-01T20:14:29.636Z,16.40
2022-10-01T20:16:58.847Z,16.95
2022-10-01T20:19:34.165Z,15.55
2022-10-01T20:22:10.771Z,16.77
2022-10-01T20:24:52.016Z,17.08
2022-10-01T20:27:32.811Z,17.33
2022-10-01T20:30:05.142Z,16.85
2022-10-01T20:32:41.816Z,16.08
2022-10-01T20:35:24.819Z,15.77
2022-10-01T20:38:04.597Z,15.57
2022-10-01T20:43:06.199Z,15.38
2022-10-01T20:45:35.026Z,14.27
2022-10-01T20:48:10.449Z,14.73
2022-10-01T20:50:42.006Z,13.73
2022-10-01T20:53:16.996Z,15.05
2022-10-01T20:55:47.964Z,13.43
2022-10-01T20:58:18.795Z,13.27
2022-10-01T21:00:47.792Z,13.38
2022-10-01T21:03:26.431Z,12.40
2022-10-01T21:05:57.756Z,12.65
2022-10-01T21:08:50.959Z,12.90
2022-10-01T21:11:26.962Z,12.25
2022-10-01T21:14:01.006Z,11.93
2022-10-01T21:16:46.916Z,11.85
2022-10-01T21:19:31.015Z,11.50
2022-10-01T21:22:13.320Z,11.30
2022-10-01T21:24:55.737Z,11.10
2022-10-01T21:27:37.278Z,11.07
2022-10-01T21:30:11.259Z,11.57
2022-10-01T21:33:04.505Z,11.50
2022-10-01T21:35:42.065Z,10.77
2022-10-01T21:38:17.163Z,10.68
2022-10-01T21:40:59.155Z,11.30
2022-10-01T21:43:41.148Z,10.88
2022-10-01T21:46:19.371Z,11.23
2022-10-01T21:48:56.109Z,10.35
2022-10-01T21:51:37.592Z,10.68
2022-10-01T21:54:19.923Z,10.70
2022-10-01T21:57:07.738Z,10.70
2022-10-01T22:00:08.902Z,10.25
2022-10-01T22:02:46.443Z,10.20
2022-10-01T22:05:22.609Z,11.13
2022-10-01T22:07:59.620Z,11.27
2022-10-01T22:10:32.302Z,11.90
2022-10-01T22:13:04.498Z,12.00
2022-10-01T22:15:37.256Z,12.52
2022-10-01T22:18:07.830Z,13.00
2022-10-01T22:20:35.383Z,11.13
2022-10-01T22:23:09.121Z,11.77
2022-10-01T22:25:43.374Z,12.05
2022-10-01T22:28:16.791Z,11.68
2022-10-01T22:30:46.634Z,12.07
2022-10-01T22:35:51.626Z,11.45
2022-10-01T22:38:24.090Z,12.23
2022-10-01T22:40:56.432Z,11.35
2022-10-01T22:43:23.839Z,12.55
2022-10-01T22:46:11.080Z,12.07
2022-10-01T22:48:51.359Z,11.73
2022-10-01T22:51:45.356Z,11.60
2022-10-01T22:54:29.423Z,11.95
2022-10-01T22:57:07.175Z,11.35
2022-10-01T22:59:48.290Z,11.68
2022-10-01T23:02:24.838Z,12.32
2022-10-01T23:05:04.108Z,11.18
2022-10-01T23:07:41.358Z,11.57
2022-10-01T23:10:16.362Z,12.18
2022-10-01T23:12:54.259Z,10.93
2022-10-01T23:15:31.980Z,11.40
2022-10-01T23:18:08.356Z,11.05
2022-10-01T23:20:41.376Z,11.80
2022-10-01T23:23:30.299Z,11.20
2022-10-01T23:26:23.137Z,11.38
2022-10-01T23:29:04.108Z,11.02
2022-10-01T23:31:40.474Z,11.20
2022-10-01T23:34:24.300Z,11.15
2022-10-01T23:37:04.432Z,11.65
2022-10-01T23:39:45.420Z,11.48
2022-10-01T23:42:27.104Z,12.20
2022-10-01T23:45:06.051Z,12.02
2022-10-01T23:47:41.907Z,12.15
2022-10-01T23:50:21.154Z,12.45
2022-10-01T23:52:57.741Z,13.02
2022-10-01T23:55:40.182Z,12.88
2022-10-01T23:58:15.161Z,12.77
